ADDS METAR Data INFO
IDs: Format: Raw Decoded Include TAF

Data at: 0317 UTC 20 Jul 2018

KLFT 200253Z 22007KT 10SM CLR 29/25 A2993 RMK AO2 SLP134 T02890250 52012
KLFT 200153Z 23006KT 10SM CLR 30/24 A2992 RMK AO2 SLP131 T03000244
KLFT 200053Z 24007KT 10SM CLR 32/24 A2990 RMK AO2 SLP125 T03170244
KLFT 192353Z 27008KT 10SM FEW040 33/23 A2989 RMK AO2 SLP122 T03330233 10344 20328 56007
KLFT 192253Z 26007KT 10SM FEW040 34/24 A2989 RMK AO2 SLP122 T03390239
KLFT 192153Z 27009KT 10SM CLR 34/23 A2990 RMK AO2 SLP125 T03440233
KLFT 192053Z 30003KT 10SM SCT043 34/23 A2991 RMK AO2 SLP129 T03390233 56015
KLFT 191953Z 26005KT 10SM CLR 33/24 A2992 RMK AO2 SLP133 T03330239
KLFT 191853Z 25008KT 10SM CLR 33/23 A2994 RMK AO2 SLP139 T03330228
KLFT 191800Z 28005KT 10SM FEW034 33/24 A2996 RMK AO2 T03280244
KLFT 191753Z 22007KT 10SM BKN025 33/24 A2996 RMK AO2 SLP144 T03280244 10328 20272 58007
KLFT 191653Z 25010KT 10SM BKN022 32/24 A2997 RMK AO2 SLP148 T03170244
KLFT 191553Z 31006KT 10SM BKN022 31/26 A2998 RMK AO2 SLP151 T03060261
KLFT 191551Z 32008KT 10SM BKN022 31/26 A2998 RMK AO2
KLFT 191453Z 30004KT 7SM SCT017 29/26 A2998 RMK AO2 SLP150 T02940261 50008
KLFT 191353Z 32004KT 10SM SCT120 28/26 A2998 RMK AO2 SLP151 T02830261
KLFT 191253Z 29003KT 10SM SCT027 BKN120 28/26 A2997 RMK AO2 SLP149 T02780256
KLFT 191241Z 28003KT 10SM SCT025 BKN120 28/26 A2997 RMK AO2 T02780256
KLFT 191227Z 00000KT 10SM BKN025 28/26 A2997 RMK AO2 T02780256
KLFT 191153Z AUTO 00000KT 10SM FEW021 27/26 A2995 RMK AO2 SLP143 T02720256 10278 20267 53013
KLFT 191053Z AUTO 25003KT 10SM SCT022 27/26 A2994 RMK AO2 SLP137 T02720256
KLFT 190953Z AUTO 22004KT 10SM CLR 27/26 A2992 RMK AO2 SLP132 T02670256
KLFT 190853Z AUTO 24005KT 10SM CLR 27/26 A2992 RMK AO2 SLP129 T02720256 55004
KLFT 190753Z AUTO 24006KT 10SM CLR 27/26 A2991 RMK AO2 SLP127 T02720256
KLFT 190653Z AUTO 24006KT 10SM CLR 28/25 A2991 RMK AO2 SLP129 T02780250
KLFT 190553Z AUTO 23006KT 10SM CLR 28/25 A2993 RMK AO2 SLP134 T02780250 10300 20272 403390267 58010
KLFT 190453Z AUTO 24007KT 10SM CLR 28/25 A2994 RMK AO2 SLP138 T02830250
KLFT 190353Z AUTO 24005KT 10SM CLR 28/25 A2995 RMK AO2 SLP143 T02830250
KLFT 190253Z 00000KT 10SM CLR 27/26 A2996 RMK AO2 SLP144 T02720261 53005
KLFT 190153Z 00000KT 10SM FEW047 28/26 A2995 RMK AO2 SLP141 T02780256
KLFT 190053Z 09004KT 9SM CLR 28/26 A2995 RMK AO2 SLP140 T02830261
KLFT 182353Z 05004KT 10SM FEW044 BKN055 OVC110 30/25 A2994 RMK AO2 SLP139 T03000250 10339 20300 55002
KLFT 182253Z 25007KT 10SM FEW047 SCT120 32/23 A2993 RMK AO2 LTG DSNT NE AND E SLP135 T03220233
KLFT 182153Z 27009KT 10SM FEW047 34/24 A2993 RMK AO2 LTG DSNT N SLP135 T03390244
KLFT 182053Z 27006KT 10SM FEW044 33/23 A2995 RMK AO2 LTG DSNT N AND NW SLP141 T03330228 56019
KLFT 181953Z 31005KT 10SM CLR 33/24 A2996 RMK AO2 SLP146 T03330244
KLFT 181853Z 29005KT 10SM FEW038 FEW045 33/24 A2999 RMK AO2 SLP154 T03280239
KLFT 181753Z 00000KT 10SM BKN030 33/25 A3001 RMK AO2 SLP161 T03280250 10328 20272 56008
KLFT 181653Z 24007KT 10SM FEW030 32/24 A3001 RMK AO2 SLP162 T03170244
KLFT 181611Z 28009KT 10SM FEW027 32/25 A3002 RMK AO2 T03170250
KLFT 181553Z 28008KT 10SM BKN020 31/25 A3002 RMK AO2 SLP166 T03110250